createdAt,value
2022-07-28T00:00:09.773Z,98233.81
2022-07-28T00:02:36.986Z,98233.47
2022-07-28T00:05:06.455Z,98240.34
2022-07-28T00:07:33.883Z,98230.31
2022-07-28T00:10:01.226Z,98239.56
2022-07-28T00:12:28.794Z,98236.28
2022-07-28T00:14:56.034Z,98239.31
2022-07-28T00:17:23.252Z,98239.75
2022-07-28T00:19:50.919Z,98251.63
2022-07-28T00:22:19.569Z,98243.75
2022-07-28T00:24:46.850Z,98244.34
2022-07-28T00:27:19.159Z,98244.66
2022-07-28T00:29:50.418Z,98244.66
2022-07-28T00:32:18.596Z,98249.66
2022-07-28T00:34:46.010Z,98243.19
2022-07-28T00:37:14.766Z,98249.50
2022-07-28T00:39:44.136Z,98252.44
2022-07-28T00:42:12.295Z,98271.06
2022-07-28T00:44:41.996Z,98267.50
2022-07-28T00:47:09.715Z,98265.19
2022-07-28T00:49:36.948Z,98275.97
2022-07-28T00:52:05.037Z,98279.66
2022-07-28T00:54:32.953Z,98281.59
2022-07-28T00:57:01.682Z,98288.03
2022-07-28T00:59:28.862Z,98287.38
2022-07-28T01:01:56.640Z,98291.63
2022-07-28T01:04:25.202Z,98298.84
2022-07-28T01:07:11.027Z,98297.03
2022-07-28T01:09:49.306Z,98297.44
2022-07-28T01:12:30.465Z,98297.00
2022-07-28T01:15:07.396Z,98289.28
2022-07-28T01:17:40.167Z,98289.06
2022-07-28T01:20:13.326Z,98293.63
2022-07-28T01:22:43.740Z,98296.84
2022-07-28T01:25:21.040Z,98296.94
2022-07-28T01:28:03.585Z,98297.53
2022-07-28T01:30:38.526Z,98298.59
2022-07-28T01:33:15.444Z,98289.75
2022-07-28T01:35:45.537Z,98297.13
2022-07-28T01:38:14.468Z,98292.47
2022-07-28T01:40:45.665Z,98300.91
2022-07-28T01:43:22.283Z,98286.06
2022-07-28T01:45:51.987Z,98303.63
2022-07-28T01:48:20.699Z,98298.41
2022-07-28T01:50:49.844Z,98301.09
2022-07-28T01:53:17.594Z,98293.34
2022-07-28T01:55:46.395Z,98298.09
2022-07-28T01:58:16.242Z,98302.84
2022-07-28T02:00:45.698Z,98310.19
2022-07-28T02:03:15.895Z,98305.34
2022-07-28T02:05:44.894Z,98305.94
2022-07-28T02:08:14.163Z,98313.81
2022-07-28T02:10:43.272Z,98323.03
2022-07-28T02:13:11.723Z,98325.47
2022-07-28T02:15:40.283Z,98317.91
2022-07-28T02:18:10.469Z,98318.53
2022-07-28T02:20:39.908Z,98323.84
2022-07-28T02:23:08.757Z,98319.97
2022-07-28T02:25:37.126Z,98320.03
2022-07-28T02:28:06.867Z,98320.72
2022-07-28T02:30:36.321Z,98320.47
2022-07-28T02:33:08.253Z,98317.75
2022-07-28T02:35:46.235Z,98324.31
2022-07-28T02:38:21.525Z,98332.44
2022-07-28T02:40:51.799Z,98336.41
2022-07-28T02:43:25.404Z,98344.72
2022-07-28T02:46:16.554Z,98347.66
2022-07-28T02:48:46.477Z,98339.31
2022-07-28T02:51:16.205Z,98347.94
2022-07-28T02:53:44.266Z,98341.63
2022-07-28T02:56:12.485Z,98357.81
2022-07-28T02:58:40.694Z,98355.69
2022-07-28T03:01:08.344Z,98352.56
2022-07-28T03:03:36.492Z,98354.44
2022-07-28T03:06:04.996Z,98358.13
2022-07-28T03:08:33.611Z,98366.72
2022-07-28T03:11:07.606Z,98362.28
2022-07-28T03:13:34.988Z,98362.03
2022-07-28T03:16:02.531Z,98364.75
2022-07-28T03:18:29.766Z,98374.41
2022-07-28T03:20:57.449Z,98372.59
2022-07-28T03:23:41.826Z,98372.31
2022-07-28T03:26:17.477Z,98376.19
2022-07-28T03:28:46.115Z,98383.47
2022-07-28T03:31:14.656Z,98380.00
2022-07-28T03:33:42.269Z,98380.00
2022-07-28T03:36:15.678Z,98381.56
2022-07-28T03:38:48.805Z,98373.94
2022-07-28T03:41:18.998Z,98378.81
2022-07-28T03:43:47.151Z,98386.84
2022-07-28T03:46:14.577Z,98390.25
2022-07-28T03:48:41.967Z,98395.19
2022-07-28T03:51:09.417Z,98397.25
2022-07-28T03:53:36.845Z,98397.72
2022-07-28T03:56:04.904Z,98406.59
2022-07-28T03:58:33.471Z,98414.63
2022-07-28T04:01:00.854Z,98407.00
2022-07-28T04:03:43.114Z,98408.75
2022-07-28T04:06:11.908Z,98417.31
2022-07-28T04:08:39.089Z,98426.16
2022-07-28T04:11:06.252Z,98430.03
2022-07-28T04:13:37.175Z,98432.06
2022-07-28T04:16:05.619Z,98433.88
2022-07-28T04:18:32.937Z,98431.09
2022-07-28T04:21:00.040Z,98429.06
2022-07-28T04:23:27.374Z,98434.66
2022-07-28T04:25:54.594Z,98433.41
2022-07-28T04:28:21.847Z,98441.56
2022-07-28T04:30:50.498Z,98440.03
2022-07-28T04:33:19.614Z,98431.53
2022-07-28T04:35:47.201Z,98444.81
2022-07-28T04:38:15.228Z,98437.66
2022-07-28T04:40:42.608Z,98442.91
2022-07-28T04:43:10.497Z,98451.25
2022-07-28T04:45:37.748Z,98443.56
2022-07-28T04:48:06.863Z,98448.72
2022-07-28T04:50:34.213Z,98453.53
2022-07-28T04:53:01.446Z,98448.16
2022-07-28T04:55:28.764Z,98453.69
2022-07-28T04:57:55.961Z,98446.28
2022-07-28T05:00:23.316Z,98451.47
2022-07-28T05:02:51.613Z,98447.88
2022-07-28T05:05:20.252Z,98453.38
2022-07-28T05:07:47.491Z,98458.22
2022-07-28T05:10:14.671Z,98457.06
2022-07-28T05:12:42.799Z,98458.63
2022-07-28T05:15:10.343Z,98458.84
2022-07-28T05:17:37.519Z,98446.03
2022-07-28T05:20:06.110Z,98449.47
2022-07-28T05:22:43.484Z,98450.03
2022-07-28T05:25:15.115Z,98446.94
2022-07-28T05:27:42.443Z,98455.16
2022-07-28T05:30:10.572Z,98454.25
2022-07-28T05:32:38.293Z,98453.13
2022-07-28T05:35:06.626Z,98451.69
2022-07-28T05:37:34.806Z,98456.31
2022-07-28T05:40:08.326Z,98454.56
2022-07-28T05:42:38.629Z,98458.22
2022-07-28T05:45:15.787Z,98464.81
2022-07-28T05:47:46.353Z,98469.91
2022-07-28T05:50:14.424Z,98469.03
2022-07-28T05:52:41.955Z,98474.84
2022-07-28T05:55:11.024Z,98467.97
2022-07-28T05:57:39.106Z,98473.19
2022-07-28T06:00:08.378Z,98478.75
2022-07-28T06:02:38.952Z,98477.16
2022-07-28T06:05:07.023Z,98483.44
2022-07-28T06:07:42.974Z,98481.50
2022-07-28T06:10:14.050Z,98477.69
2022-07-28T06:12:41.629Z,98488.97
2022-07-28T06:15:13.259Z,98477.66
2022-07-28T06:17:41.120Z,98480.81
2022-07-28T06:20:09.875Z,98498.16
2022-07-28T06:22:44.775Z,98483.09
2022-07-28T06:25:18.395Z,98477.28
2022-07-28T06:27:46.182Z,98485.34
2022-07-28T06:30:13.707Z,98487.88
2022-07-28T06:32:40.978Z,98491.75
2022-07-28T06:35:09.309Z,98489.00
2022-07-28T06:37:36.663Z,98491.41
2022-07-28T06:40:04.565Z,98488.78
2022-07-28T06:42:33.455Z,98491.66
2022-07-28T06:45:00.614Z,98480.25
2022-07-28T06:47:27.834Z,98490.56
2022-07-28T06:49:55.080Z,98480.09
2022-07-28T06:52:22.291Z,98484.34
2022-07-28T06:54:52.281Z,98474.91
2022-07-28T06:57:21.001Z,98484.53
2022-07-28T06:59:49.995Z,98478.97
2022-07-28T07:02:17.750Z,98479.03
2022-07-28T07:04:45.328Z,98479.50
2022-07-28T07:07:17.041Z,98479.38
2022-07-28T07:09:44.587Z,98484.97
2022-07-28T07:12:11.899Z,98487.88
2022-07-28T07:14:39.238Z,98479.16
2022-07-28T07:17:07.799Z,98479.84
2022-07-28T07:19:35.023Z,98486.69
2022-07-28T07:22:02.269Z,98483.94
2022-07-28T07:24:29.537Z,98483.47
2022-07-28T07:26:56.914Z,98485.16
2022-07-28T07:29:24.576Z,98471.28
2022-07-28T07:31:52.997Z,98480.69
2022-07-28T07:34:22.202Z,98485.13
2022-07-28T07:36:49.560Z,98492.00
2022-07-28T07:39:16.809Z,98492.19
2022-07-28T07:41:45.264Z,98493.53
2022-07-28T07:44:13.407Z,98492.63
2022-07-28T07:46:40.987Z,98496.50
2022-07-28T07:49:08.212Z,98494.53
2022-07-28T07:51:36.806Z,98496.13
2022-07-28T07:54:04.259Z,98493.53
2022-07-28T07:56:31.447Z,98494.47
2022-07-28T07:58:58.819Z,98494.47
2022-07-28T08:01:26.127Z,98489.22
2022-07-28T08:03:53.796Z,98495.69
2022-07-28T08:06:26.314Z,98498.09
2022-07-28T08:08:56.003Z,98501.63
2022-07-28T08:11:23.419Z,98492.00
2022-07-28T08:13:50.600Z,98488.22
2022-07-28T08:16:17.898Z,98491.19
2022-07-28T08:18:45.142Z,98489.75
2022-07-28T08:21:13.286Z,98495.41
2022-07-28T08:23:40.581Z,98488.91
2022-07-28T08:26:09.200Z,98484.06
2022-07-28T08:28:36.354Z,98487.22
2022-07-28T08:31:03.770Z,98479.75
2022-07-28T08:33:31.084Z,98489.91
2022-07-28T08:35:58.376Z,98484.78
2022-07-28T08:38:25.658Z,98488.72
2022-07-28T08:40:56.710Z,98487.72
2022-07-28T08:43:33.143Z,98490.00
2022-07-28T08:46:02.086Z,98481.00
2022-07-28T08:48:31.458Z,98485.66
2022-07-28T08:51:02.741Z,98483.06
2022-07-28T08:53:31.357Z,98476.28
2022-07-28T08:56:03.233Z,98482.47
2022-07-28T08:58:34.002Z,98482.41
2022-07-28T09:01:02.102Z,98483.63
2022-07-28T09:03:30.057Z,98484.41
2022-07-28T09:05:58.113Z,98476.44
2022-07-28T09:08:26.050Z,98477.16
2022-07-28T09:10:53.543Z,98479.06
2022-07-28T09:13:21.007Z,98482.53
2022-07-28T09:15:50.685Z,98477.19
2022-07-28T09:18:18.251Z,98471.41
2022-07-28T09:20:45.734Z,98481.31
2022-07-28T09:23:41.707Z,98467.88
2022-07-28T09:26:10.886Z,98469.47
2022-07-28T09:28:48.195Z,98469.47
2022-07-28T09:31:17.605Z,98465.63
2022-07-28T09:34:02.567Z,98472.91
2022-07-28T09:36:31.076Z,98470.59
2022-07-28T09:38:59.248Z,98470.63
2022-07-28T09:41:26.565Z,98464.44
2022-07-28T09:43:55.901Z,98465.91
2022-07-28T09:46:26.155Z,98460.09
2022-07-28T09:48:57.263Z,98471.84
2022-07-28T09:51:27.933Z,98466.00
2022-07-28T09:54:08.576Z,98467.00
2022-07-28T09:56:36.304Z,98465.81
2022-07-28T09:59:04.069Z,98465.31
2022-07-28T10:01:35.797Z,98467.66
2022-07-28T10:04:04.512Z,98469.97
2022-07-28T10:06:33.590Z,98468.41
2022-07-28T10:09:02.313Z,98467.56
2022-07-28T10:11:30.457Z,98466.16
2022-07-28T10:14:00.515Z,98455.19
2022-07-28T10:16:30.017Z,98459.44
2022-07-28T10:19:00.202Z,98465.38
2022-07-28T10:21:28.767Z,98458.38
2022-07-28T10:23:57.679Z,98463.91
2022-07-28T10:26:30.086Z,98455.41
2022-07-28T10:28:59.603Z,98456.91
2022-07-28T10:31:34.712Z,98462.91
2022-07-28T10:34:05.608Z,98454.56
2022-07-28T10:36:35.250Z,98451.66
2022-07-28T10:39:12.583Z,98447.19
2022-07-28T10:41:41.720Z,98455.09
2022-07-28T10:44:14.382Z,98450.66
2022-07-28T10:46:43.575Z,98453.16
2022-07-28T10:49:13.819Z,98443.34
2022-07-28T10:52:01.166Z,98443.59
2022-07-28T10:54:30.992Z,98448.47
2022-07-28T10:57:01.014Z,98439.28
2022-07-28T10:59:55.846Z,98437.19
2022-07-28T11:02:47.722Z,98438.75
2022-07-28T11:05:36.985Z,98437.63
2022-07-28T11:08:06.946Z,98441.09
2022-07-28T11:10:46.397Z,98432.53
2022-07-28T11:13:28.866Z,98434.63
2022-07-28T11:15:57.531Z,98437.22
2022-07-28T11:18:25.293Z,98438.69
2022-07-28T11:21:06.480Z,98434.56
2022-07-28T11:23:46.868Z,98433.91
2022-07-28T11:26:44.788Z,98438.66
2022-07-28T11:29:21.712Z,98436.81
2022-07-28T11:32:04.702Z,98436.09
2022-07-28T11:35:09.535Z,98426.81
2022-07-28T11:38:13.149Z,98436.38
2022-07-28T11:40:42.969Z,98427.31
2022-07-28T11:43:37.597Z,98425.06
2022-07-28T11:46:23.094Z,98432.28
2022-07-28T11:49:23.642Z,98428.28
2022-07-28T11:52:21.272Z,98426.44
2022-07-28T11:54:53.178Z,98428.00
2022-07-28T11:57:24.310Z,98434.88
2022-07-28T11:59:54.952Z,98430.19
2022-07-28T12:02:26.545Z,98424.28
2022-07-28T12:05:09.739Z,98418.19
2022-07-28T12:07:43.016Z,98428.28
2022-07-28T12:13:26.639Z,98426.19
2022-07-28T12:15:53.990Z,98421.56
2022-07-28T12:18:21.742Z,98412.13
2022-07-28T12:20:53.790Z,98406.03
2022-07-28T12:23:38.905Z,98407.75
2022-07-28T12:26:29.875Z,98414.03
2022-07-28T12:29:00.294Z,98408.69
2022-07-28T12:31:36.178Z,98400.69
2022-07-28T12:34:06.525Z,98409.06
2022-07-28T12:36:34.184Z,98400.25
2022-07-28T12:39:02.064Z,98392.59
2022-07-28T12:41:34.813Z,98388.00
2022-07-28T12:44:05.813Z,98397.09
2022-07-28T12:46:33.454Z,98389.78
2022-07-28T12:49:01.495Z,98384.97
2022-07-28T12:51:33.204Z,98382.47
2022-07-28T12:54:00.795Z,98383.63
2022-07-28T12:56:28.121Z,98386.66
2022-07-28T12:59:08.025Z,98385.16
2022-07-28T13:01:47.283Z,98377.91
2022-07-28T13:04:15.425Z,98375.72
2022-07-28T13:06:42.929Z,98370.25
2022-07-28T13:09:21.988Z,98380.38
2022-07-28T13:11:51.351Z,98367.41
2022-07-28T13:14:40.093Z,98368.16
2022-07-28T13:17:07.330Z,98367.38
2022-07-28T13:19:34.590Z,98367.31
2022-07-28T13:22:06.875Z,98368.88
2022-07-28T13:24:36.341Z,98370.38
2022-07-28T13:27:04.452Z,98365.38
2022-07-28T13:29:34.484Z,98361.50
2022-07-28T13:32:03.091Z,98361.22
2022-07-28T13:34:30.399Z,98352.00
2022-07-28T13:36:57.631Z,98352.78
2022-07-28T13:39:25.287Z,98345.91
2022-07-28T13:41:58.259Z,98348.97
2022-07-28T13:44:26.702Z,98345.16
2022-07-28T13:46:55.237Z,98339.78
2022-07-28T13:49:24.391Z,98342.44
2022-07-28T13:51:51.670Z,98344.34
2022-07-28T13:54:19.574Z,98349.03
2022-07-28T13:57:06.302Z,98345.22
2022-07-28T13:59:36.291Z,98349.38
2022-07-28T14:02:05.535Z,98365.00
2022-07-28T14:04:48.966Z,98354.94
2022-07-28T14:07:20.381Z,98357.81
2022-07-28T14:09:50.241Z,98361.06
2022-07-28T14:12:17.960Z,98363.19
2022-07-28T14:14:47.752Z,98373.31
2022-07-28T14:17:39.988Z,98375.44
2022-07-28T14:20:05.635Z,98372.22
2022-07-28T14:22:32.846Z,98376.59
2022-07-28T14:25:00.077Z,98376.44
2022-07-28T14:27:29.247Z,98377.75
2022-07-28T14:29:56.685Z,98378.25
2022-07-28T14:32:24.192Z,98373.22
2022-07-28T14:34:51.702Z,98381.09
2022-07-28T14:37:22.124Z,98378.41
2022-07-28T14:39:49.367Z,98374.66
2022-07-28T14:42:16.706Z,98377.16
2022-07-28T14:44:43.916Z,98386.56
2022-07-28T14:47:11.278Z,98387.59
2022-07-28T14:49:38.487Z,98386.38
2022-07-28T14:52:27.448Z,98390.47
2022-07-28T14:54:54.663Z,98391.88
2022-07-28T14:57:48.065Z,98379.50
2022-07-28T15:00:12.463Z,98374.31
2022-07-28T15:02:39.872Z,98391.28
2022-07-28T15:05:08.735Z,98399.19
2022-07-28T15:07:37.834Z,98420.25
2022-07-28T15:10:05.724Z,98445.63
2022-07-28T15:12:32.878Z,98433.94
2022-07-28T15:15:00.241Z,98447.88
2022-07-28T15:17:27.402Z,98472.25
2022-07-28T15:19:56.234Z,98480.31
2022-07-28T15:22:25.022Z,98497.72
2022-07-28T15:24:55.038Z,98513.75
2022-07-28T15:27:23.756Z,98555.28
2022-07-28T15:29:52.094Z,98573.16
2022-07-28T15:32:21.572Z,98572.22
2022-07-28T15:34:55.894Z,98581.63
2022-07-28T15:37:23.296Z,98572.56
2022-07-28T15:39:50.461Z,98575.66
2022-07-28T15:42:19.244Z,98566.72
2022-07-28T15:44:46.398Z,98575.66
2022-07-28T15:47:13.703Z,98580.63
2022-07-28T15:49:41.682Z,98591.91
2022-07-28T15:52:08.879Z,98567.38
2022-07-28T15:54:36.595Z,98592.22
2022-07-28T15:57:03.949Z,98584.28
2022-07-28T15:59:50.261Z,98579.66
2022-07-28T16:02:18.509Z,98578.34
2022-07-28T16:04:53.344Z,98575.47
2022-07-28T16:07:23.616Z,98587.56
2022-07-28T16:09:51.418Z,98592.63
2022-07-28T16:12:19.090Z,98589.19
2022-07-28T16:14:47.856Z,98604.16
2022-07-28T16:17:15.513Z,98613.44
2022-07-28T16:19:49.663Z,98626.78
2022-07-28T16:22:18.503Z,98648.25
2022-07-28T16:24:46.231Z,98660.97
2022-07-28T16:27:13.972Z,98669.16
2022-07-28T16:29:41.160Z,98680.97
2022-07-28T16:32:10.074Z,98688.44
2022-07-28T16:34:37.531Z,98694.34
2022-07-28T16:37:05.688Z,98710.09
2022-07-28T16:39:33.311Z,98728.28
2022-07-28T16:42:00.497Z,98738.81
2022-07-28T16:44:29.240Z,98745.97
2022-07-28T16:46:56.800Z,98753.06
2022-07-28T16:49:25.442Z,98752.56
2022-07-28T16:51:52.954Z,98743.38
2022-07-28T16:54:20.659Z,98743.66
2022-07-28T16:56:48.182Z,98736.38
2022-07-28T16:59:15.368Z,98744.88
2022-07-28T17:01:46.226Z,98745.63
2022-07-28T17:04:14.894Z,98732.91
2022-07-28T17:06:43.873Z,98729.06
2022-07-28T17:09:11.247Z,98732.28
2022-07-28T17:11:38.676Z,98719.81
2022-07-28T17:14:05.848Z,98704.91
2022-07-28T17:16:33.146Z,98700.84
2022-07-28T17:19:00.876Z,98711.44
2022-07-28T17:21:28.127Z,98712.31
2022-07-28T17:23:56.794Z,98713.06
2022-07-28T17:29:11.145Z,98688.16
2022-07-28T17:31:39.058Z,98683.53
2022-07-28T17:34:07.495Z,98670.72
2022-07-28T17:36:35.575Z,98660.59
2022-07-28T17:39:04.778Z,98627.25
2022-07-28T17:41:32.493Z,98595.50
2022-07-28T17:43:59.758Z,98567.50
2022-07-28T17:46:27.027Z,98570.03
2022-07-28T17:48:54.408Z,98552.84
2022-07-28T17:51:21.975Z,98539.72
2022-07-28T17:53:50.199Z,98535.06
2022-07-28T17:56:19.482Z,98509.41
2022-07-28T17:58:48.392Z,98508.44
2022-07-28T18:01:15.911Z,98509.53
2022-07-28T18:03:58.866Z,98508.03
2022-07-28T18:06:30.630Z,98499.59
2022-07-28T18:09:05.542Z,98502.44
2022-07-28T18:11:37.812Z,98503.28
2022-07-28T18:14:24.429Z,98516.41
2022-07-28T18:16:51.638Z,98536.22
2022-07-28T18:19:18.960Z,98547.06
2022-07-28T18:21:46.107Z,98560.97
2022-07-28T18:24:13.602Z,98573.53
2022-07-28T18:26:42.414Z,98570.31
2022-07-28T18:29:09.667Z,98582.53
2022-07-28T18:31:43.915Z,98579.88
2022-07-28T18:34:13.603Z,98594.44
2022-07-28T18:36:41.071Z,98596.16
2022-07-28T18:39:08.660Z,98604.09
2022-07-28T18:41:46.630Z,98605.06
2022-07-28T18:44:17.259Z,98619.13
2022-07-28T18:46:45.543Z,98623.22
2022-07-28T18:49:12.922Z,98629.47
2022-07-28T18:51:40.162Z,98646.41
2022-07-28T18:54:13.076Z,98657.88
2022-07-28T18:56:40.309Z,98660.19
2022-07-28T18:59:07.531Z,98677.31
2022-07-28T19:01:36.090Z,98684.72
2022-07-28T19:04:03.653Z,98694.63
2022-07-28T19:06:30.887Z,98692.78
2022-07-28T19:08:58.578Z,98694.16
2022-07-28T19:11:25.747Z,98696.19
2022-07-28T19:13:53.734Z,98688.41
2022-07-28T19:16:20.935Z,98693.00
2022-07-28T19:18:49.795Z,98695.31
2022-07-28T19:21:17.015Z,98708.94
2022-07-28T19:23:44.225Z,98714.00
2022-07-28T19:26:11.361Z,98714.28
2022-07-28T19:28:38.536Z,98709.81
2022-07-28T19:31:10.015Z,98721.88
2022-07-28T19:33:43.024Z,98727.13
2022-07-28T19:36:15.808Z,98722.47
2022-07-28T19:38:44.095Z,98727.22
2022-07-28T19:41:13.123Z,98723.81
2022-07-28T19:43:40.442Z,98725.94
2022-07-28T19:46:07.843Z,98722.63
2022-07-28T19:48:35.235Z,98724.78
2022-07-28T19:51:02.639Z,98724.28
2022-07-28T19:53:31.887Z,98731.66
2022-07-28T19:55:59.724Z,98733.69
2022-07-28T19:58:27.862Z,98736.41
2022-07-28T20:00:56.575Z,98728.13
2022-07-28T20:04:04.106Z,98728.25
2022-07-28T20:06:11.213Z,98735.03
2022-07-28T20:08:39.806Z,98730.88
2022-07-28T20:11:08.112Z,98731.16
2022-07-28T20:13:35.428Z,98728.31
2022-07-28T20:16:02.715Z,98723.66
2022-07-28T20:18:29.894Z,98729.19
2022-07-28T20:20:57.519Z,98736.56
2022-07-28T20:23:24.786Z,98735.38
2022-07-28T20:25:53.375Z,98736.56
2022-07-28T20:28:21.440Z,98729.72
2022-07-28T20:30:49.262Z,98731.59
2022-07-28T20:33:16.703Z,98727.97
2022-07-28T20:35:43.825Z,98732.44
2022-07-28T20:38:11.037Z,98735.59
2022-07-28T20:40:38.414Z,98728.31
2022-07-28T20:43:07.058Z,98731.50
2022-07-28T20:45:34.588Z,98729.44
2022-07-28T20:48:01.969Z,98725.84
2022-07-28T20:50:29.540Z,98725.66
2022-07-28T20:52:56.691Z,98732.50
2022-07-28T20:55:24.016Z,98751.19
2022-07-28T20:57:53.235Z,98746.97
2022-07-28T21:00:24.214Z,98759.91
2022-07-28T21:02:51.722Z,98760.94
2022-07-28T21:05:34.724Z,98756.75
2022-07-28T21:08:06.447Z,98764.63
2022-07-28T21:10:37.088Z,98766.53
2022-07-28T21:13:04.629Z,98765.47
2022-07-28T21:15:33.318Z,98767.09
2022-07-28T21:18:00.503Z,98771.09
2022-07-28T21:20:27.763Z,98766.69
2022-07-28T21:22:54.948Z,98762.28
2022-07-28T21:25:22.844Z,98756.06
2022-07-28T21:28:08.719Z,98766.81
2022-07-28T21:30:37.348Z,98766.91
2022-07-28T21:33:04.544Z,98777.94
2022-07-28T21:35:31.779Z,98766.97
2022-07-28T21:37:59.035Z,98768.84
2022-07-28T21:40:26.452Z,98763.69
2022-07-28T21:42:53.575Z,98769.47
2022-07-28T21:45:21.257Z,98774.00
2022-07-28T21:47:49.978Z,98775.63
2022-07-28T21:50:17.295Z,98779.84
2022-07-28T21:52:44.472Z,98783.03
2022-07-28T21:55:12.427Z,98775.75
2022-07-28T21:57:39.570Z,98779.97
2022-07-28T22:00:09.233Z,98779.53
2022-07-28T22:02:36.683Z,98779.31
2022-07-28T22:05:06.380Z,98784.31
2022-07-28T22:07:33.791Z,98777.78
2022-07-28T22:10:00.940Z,98776.00
2022-07-28T22:12:28.076Z,98785.47
2022-07-28T22:14:55.194Z,98780.03
2022-07-28T22:17:22.325Z,98779.78
2022-07-28T22:19:49.486Z,98782.97
2022-07-28T22:22:18.614Z,98788.72
2022-07-28T22:24:46.148Z,98782.75
2022-07-28T22:27:13.348Z,98794.28
2022-07-28T22:29:40.563Z,98794.84
2022-07-28T22:32:13.280Z,98797.72
2022-07-28T22:34:40.456Z,98796.72
2022-07-28T22:37:12.874Z,98797.25
2022-07-28T22:39:42.052Z,98793.91
2022-07-28T22:42:09.225Z,98797.06
2022-07-28T22:44:36.490Z,98799.19
2022-07-28T22:47:03.754Z,98790.56
2022-07-28T22:49:30.963Z,98799.19
2022-07-28T22:51:58.091Z,98795.28
2022-07-28T22:54:25.250Z,98794.78
2022-07-28T22:56:54.212Z,98798.75
2022-07-28T22:59:21.496Z,98787.75
2022-07-28T23:01:48.726Z,98796.16
2022-07-28T23:04:16.200Z,98785.47
2022-07-28T23:06:43.893Z,98788.63
2022-07-28T23:09:12.389Z,98786.28
2022-07-28T23:11:39.716Z,98793.34
2022-07-28T23:14:08.398Z,98778.19
2022-07-28T23:16:35.665Z,98781.41
2022-07-28T23:19:03.016Z,98780.41
2022-07-28T23:21:30.641Z,98778.88
2022-07-28T23:23:57.933Z,98776.03
2022-07-28T23:26:25.332Z,98781.03
2022-07-28T23:28:52.643Z,98783.91
2022-07-28T23:31:21.422Z,98784.19
2022-07-28T23:33:56.306Z,98783.44
2022-07-28T23:36:27.631Z,98781.09
2022-07-28T23:38:56.551Z,98780.59
2022-07-28T23:41:24.100Z,98779.59
2022-07-28T23:43:51.383Z,98775.44
2022-07-28T23:46:18.731Z,98773.84
2022-07-28T23:48:47.445Z,98778.53
2022-07-28T23:51:15.003Z,98783.78
2022-07-28T23:53:42.415Z,98772.81
2022-07-28T23:56:10.304Z,98779.66
2022-07-28T23:58:37.533Z,98778.06
